Airfield :
LOGIN :

Register | Disclaimer

   EN    FR    IT 

 










Legend :    VFR   Marginal VFR   IFR   Intensive IFR   Very Intensive IFR
Visi :
Ceiling :
>= 8 km
>= 3000ft
5 to 8 km
1000 to 3000 ft
1500m to 5 km
500 to 1000 ft
800 to 1500m
200 to 500 ft
< 800m
< 200 ft
Symbols :   Thunderstorms  Fog  Heavy snow  Heavy precipitations  Wind > 20 kt
SIGMETs :     Misc.  Thunderstorms  Icing  Turbulence  Mountain Waves  Volcanic Ashes







- Airport Elevation : 74 ft
- IATA code : LRH
- Download approach charts


LFBH - La Rochelle Ile de Ré

CURRENT METAR :
  • 161800Z AUTO 30017KT CAVOK 22/17 Q1017 BECMG 31015G25KT

EXPIRED METARs :
  • 161730Z AUTO 31017KT CAVOK 22/17 Q1017 BECMG 31015G25KT
  • 161700Z AUTO 31019KT CAVOK 22/17 Q1016 TEMPO 30020G30KT
  • 161630Z AUTO 31018KT CAVOK 22/17 Q1016 TEMPO 30020G30KT
  • 161600Z AUTO 30021KT CAVOK 23/17 Q1016 TEMPO 30020G30KT
  • 161530Z AUTO 31021KT CAVOK 23/18 Q1016 TEMPO 30020G30KT

TAF TAF LFBH
Valid from the 16 at 18:00 until the 17 at 18:00 UTC


161700Z 1618/1718 31015G25KT CAVOK
TEMPO 1622/1701 BKN013
BECMG 1700/1702 34004KT
ATIS : +33 5 46 00 13 92
No reported NOTAMs for that airfield.
2 SIGMETs reported for the Bordeaux FIR (LFBB) :
 
Embedded thunderstorms
LFBB SIGMET 18 VALID 161800/162000 LFPW
LFBB BORDEAUX FIR/UIR EMBD TS FCST WI N4630 W00015 - N4715 W00015 - N4715 E00030 - N4600 E00115 - N4545 E00000 - N4630 W00015 TOP FL330 MOV E 15KT NC=
Severe turbulence
LFBB SIGMET 16 VALID 161600/162000 LFPW
LFBB BORDEAUX FIR/UIR SEV TURB FCST WI N4315 E00245 - N4230 E00230 - N4300 E00215 - N4315 E00245 SFC/FL060 STNR NC=



MET'MAP, your aeronautical weather chart ! - Copyright ORBIFLY December 2007 - Disclaimer

ORBIFLY MET'MAP TEAM :

Programming & Development : Alexandra Zaïnal
Concept & Development : Baudouin d'Aumeries
Co-Development & Prog : Marc-Olivier Méhu
Technical & hardware support : Manuel Goepfert

Contact : metmap@orbifly.com




SOURCES & CREDITS :

   NOAA